createdAt,value
2022-11-09T00:01:03.112Z,95.83
2022-11-09T00:03:29.637Z,96.07
2022-11-09T00:06:00.548Z,95.92
2022-11-09T00:08:27.888Z,96.16
2022-11-09T00:10:54.453Z,95.82
2022-11-09T00:13:22.131Z,95.82
2022-11-09T00:15:49.077Z,95.79
2022-11-09T00:18:15.623Z,95.54
2022-11-09T00:20:47.203Z,95.88
2022-11-09T00:23:15.247Z,95.57
2022-11-09T00:25:41.793Z,94.97
2022-11-09T00:28:08.315Z,95.47
2022-11-09T00:30:34.838Z,95.62
2022-11-09T00:33:01.340Z,95.55
2022-11-09T00:35:27.895Z,95.40
2022-11-09T00:37:54.829Z,94.89
2022-11-09T00:40:21.376Z,95.14
2022-11-09T00:42:47.893Z,95.06
2022-11-09T00:45:14.455Z,94.99
2022-11-09T00:47:40.990Z,95.05
2022-11-09T00:50:07.980Z,95.24
2022-11-09T00:52:34.498Z,94.59
2022-11-09T00:55:01.133Z,94.83
2022-11-09T00:57:28.930Z,94.49
2022-11-09T00:59:55.452Z,94.80
2022-11-09T01:02:21.968Z,94.52
2022-11-09T01:04:48.517Z,94.63
2022-11-09T01:07:15.132Z,94.59
2022-11-09T01:09:42.151Z,94.75
2022-11-09T01:12:08.724Z,94.35
2022-11-09T01:14:35.253Z,94.43
2022-11-09T01:17:01.755Z,93.79
2022-11-09T01:19:28.284Z,93.88
2022-11-09T01:21:54.790Z,93.62
2022-11-09T01:24:21.337Z,93.66
2022-11-09T01:26:47.934Z,93.54
2022-11-09T01:29:14.439Z,93.41
2022-11-09T01:31:40.978Z,93.71
2022-11-09T01:34:07.522Z,93.26
2022-11-09T01:36:34.013Z,93.26
2022-11-09T01:39:00.999Z,93.26
2022-11-09T01:41:29.115Z,92.98
2022-11-09T01:44:19.632Z,93.17
2022-11-09T01:46:52.013Z,93.02
2022-11-09T01:49:46.970Z,92.44
2022-11-09T01:52:18.133Z,92.66
2022-11-09T01:54:48.409Z,92.62
2022-11-09T01:57:44.851Z,92.57
2022-11-09T02:00:14.260Z,92.07
2022-11-09T02:03:05.273Z,92.25
2022-11-09T02:05:35.004Z,92.00
2022-11-09T02:08:05.358Z,92.08
2022-11-09T02:10:39.773Z,92.06
2022-11-09T02:13:09.759Z,91.81
2022-11-09T02:15:39.137Z,92.11
2022-11-09T02:18:09.567Z,91.20
2022-11-09T02:20:49.922Z,91.13
2022-11-09T02:23:17.837Z,91.71
2022-11-09T02:25:49.455Z,91.07
2022-11-09T02:28:16.563Z,91.33
2022-11-09T02:30:46.856Z,91.04
2022-11-09T02:33:13.351Z,90.82
2022-11-09T02:35:39.900Z,90.55
2022-11-09T02:38:09.924Z,90.28
2022-11-09T02:40:41.022Z,90.18
2022-11-09T02:43:10.007Z,90.03
2022-11-09T02:45:36.965Z,90.42
2022-11-09T02:48:03.912Z,90.13
2022-11-09T02:50:30.529Z,89.99
2022-11-09T02:52:57.110Z,89.83
2022-11-09T02:55:23.628Z,89.62
2022-11-09T02:57:50.157Z,89.59
2022-11-09T03:00:17.013Z,89.88
2022-11-09T03:02:43.615Z,89.91
2022-11-09T03:05:10.331Z,89.75
2022-11-09T03:07:36.857Z,89.26
2022-11-09T03:10:03.837Z,89.74
2022-11-09T03:12:30.447Z,89.43
2022-11-09T03:15:02.069Z,89.36
2022-11-09T03:17:29.010Z,89.21
2022-11-09T03:19:55.669Z,89.06
2022-11-09T03:22:22.324Z,89.15
2022-11-09T03:24:49.011Z,89.22
2022-11-09T03:27:15.962Z,88.93
2022-11-09T03:29:42.502Z,89.09
2022-11-09T03:32:09.739Z,89.51
2022-11-09T03:34:36.528Z,89.19
2022-11-09T03:37:03.121Z,89.20
2022-11-09T03:39:29.659Z,88.84
2022-11-09T03:41:56.202Z,88.82
2022-11-09T03:44:22.775Z,88.91
2022-11-09T03:46:49.266Z,88.87
2022-11-09T03:49:15.885Z,88.83
2022-11-09T03:51:42.472Z,88.69
2022-11-09T03:54:09.046Z,88.56
2022-11-09T03:56:35.582Z,88.22
2022-11-09T03:59:02.149Z,88.11
2022-11-09T04:01:28.704Z,88.15
2022-11-09T04:03:55.255Z,88.37
2022-11-09T04:06:21.812Z,87.98
2022-11-09T04:08:51.357Z,87.74
2022-11-09T04:11:18.427Z,87.70
2022-11-09T04:13:44.978Z,88.01
2022-11-09T04:16:12.411Z,87.33
2022-11-09T04:18:38.946Z,87.12
2022-11-09T04:21:05.507Z,86.99
2022-11-09T04:23:32.071Z,86.91
2022-11-09T04:25:59.643Z,87.26
2022-11-09T04:28:26.628Z,87.20
2022-11-09T04:30:53.295Z,86.93
2022-11-09T04:33:20.224Z,87.02
2022-11-09T04:35:46.950Z,87.19
2022-11-09T04:38:14.557Z,87.13
2022-11-09T04:40:41.219Z,87.33
2022-11-09T04:43:11.601Z,87.09
2022-11-09T04:45:38.152Z,87.04
2022-11-09T04:48:06.657Z,86.87
2022-11-09T04:50:34.060Z,86.62
2022-11-09T04:53:12.112Z,86.55
2022-11-09T04:55:39.958Z,86.75
2022-11-09T04:58:07.236Z,86.86
2022-11-09T05:00:34.933Z,86.54
2022-11-09T05:03:02.587Z,86.24
2022-11-09T05:05:29.678Z,86.44
2022-11-09T05:07:56.525Z,86.36
2022-11-09T05:10:23.057Z,86.14
2022-11-09T05:12:49.662Z,85.88
2022-11-09T05:15:16.309Z,86.10
2022-11-09T05:17:42.924Z,85.89
2022-11-09T05:20:10.103Z,85.87
2022-11-09T05:22:58.668Z,85.98
2022-11-09T05:25:25.251Z,85.54
2022-11-09T05:27:52.717Z,85.81
2022-11-09T05:30:19.732Z,85.65
2022-11-09T05:32:46.377Z,85.36
2022-11-09T05:35:13.028Z,85.58
2022-11-09T05:37:40.053Z,85.50
2022-11-09T05:40:09.261Z,85.23
2022-11-09T05:42:39.496Z,85.40
2022-11-09T05:45:35.576Z,85.00
2022-11-09T05:47:53.366Z,85.06
2022-11-09T05:50:19.955Z,85.01
2022-11-09T05:52:46.471Z,85.09
2022-11-09T05:55:13.046Z,84.91
2022-11-09T05:57:39.683Z,85.17
2022-11-09T06:00:10.844Z,85.25
2022-11-09T06:02:37.720Z,84.84
2022-11-09T06:05:04.424Z,85.31
2022-11-09T06:07:30.934Z,85.12
2022-11-09T06:09:57.485Z,84.85
2022-11-09T06:12:24.036Z,84.80
2022-11-09T06:14:50.547Z,85.03
2022-11-09T06:17:17.069Z,85.19
2022-11-09T06:19:43.663Z,84.66
2022-11-09T06:22:10.244Z,84.59
2022-11-09T06:24:37.009Z,84.39
2022-11-09T06:27:03.725Z,84.93
2022-11-09T06:29:30.259Z,84.13
2022-11-09T06:31:56.911Z,84.33
2022-11-09T06:34:23.508Z,84.18
2022-11-09T06:36:50.151Z,83.95
2022-11-09T06:39:16.733Z,84.32
2022-11-09T06:41:47.264Z,84.03
2022-11-09T06:44:14.218Z,84.32
2022-11-09T06:46:40.950Z,84.61
2022-11-09T06:49:08.230Z,84.24
2022-11-09T06:51:34.764Z,83.87
2022-11-09T06:54:01.292Z,84.02
2022-11-09T06:56:28.012Z,83.92
2022-11-09T06:58:54.644Z,83.94
2022-11-09T07:01:26.541Z,83.79
2022-11-09T07:03:53.163Z,84.11
2022-11-09T07:06:19.680Z,84.02
2022-11-09T07:08:46.219Z,84.12
2022-11-09T07:11:16.284Z,84.30
2022-11-09T07:13:43.154Z,84.02
2022-11-09T07:16:12.026Z,84.32
2022-11-09T07:18:38.811Z,83.60
2022-11-09T07:21:08.851Z,83.27
2022-11-09T07:23:39.568Z,83.77
2022-11-09T07:26:06.174Z,83.10
2022-11-09T07:28:32.724Z,83.40
2022-11-09T07:30:59.490Z,82.92
2022-11-09T07:33:26.632Z,82.89
2022-11-09T07:35:53.400Z,82.33
2022-11-09T07:38:20.009Z,82.64
2022-11-09T07:40:46.735Z,82.28
2022-11-09T07:43:13.328Z,82.20
2022-11-09T07:45:40.575Z,82.09
2022-11-09T07:48:10.195Z,81.82
2022-11-09T07:50:38.801Z,82.19
2022-11-09T07:53:07.328Z,82.42
2022-11-09T07:55:34.782Z,82.16
2022-11-09T07:58:21.570Z,81.64
2022-11-09T08:00:48.145Z,81.66
2022-11-09T08:03:14.663Z,81.66
2022-11-09T08:05:41.331Z,81.45
2022-11-09T08:08:10.519Z,81.60
2022-11-09T08:10:37.551Z,81.55
2022-11-09T08:13:10.625Z,81.51
2022-11-09T08:15:38.412Z,81.49
2022-11-09T08:18:08.567Z,81.41
2022-11-09T08:20:35.406Z,81.53
2022-11-09T08:23:04.761Z,81.73
2022-11-09T08:25:33.494Z,81.43
2022-11-09T08:28:00.209Z,81.90
2022-11-09T08:30:27.250Z,81.43
2022-11-09T08:32:53.790Z,81.35
2022-11-09T08:35:22.867Z,81.18
2022-11-09T08:37:51.275Z,81.30
2022-11-09T08:40:23.604Z,81.43
2022-11-09T08:42:50.936Z,81.52
2022-11-09T08:45:18.123Z,81.43
2022-11-09T08:47:45.663Z,81.18
2022-11-09T08:50:14.564Z,81.19
2022-11-09T08:52:41.145Z,80.79
2022-11-09T08:55:08.203Z,81.05
2022-11-09T08:57:35.016Z,81.24
2022-11-09T09:00:01.595Z,81.52
2022-11-09T09:02:28.161Z,81.46
2022-11-09T09:04:54.661Z,81.57
2022-11-09T09:07:21.292Z,81.67
2022-11-09T09:09:48.006Z,81.14
2022-11-09T09:12:14.606Z,81.98
2022-11-09T09:14:41.146Z,81.76
2022-11-09T09:17:07.722Z,81.90
2022-11-09T09:19:34.846Z,81.51
2022-11-09T09:22:01.622Z,81.41
2022-11-09T09:24:28.503Z,81.85
2022-11-09T09:26:55.402Z,81.74
2022-11-09T09:29:21.971Z,81.82
2022-11-09T09:31:48.525Z,82.04
2022-11-09T09:34:15.272Z,82.37
2022-11-09T09:36:47.317Z,82.58
2022-11-09T09:39:14.851Z,82.55
2022-11-09T09:41:50.555Z,82.56
2022-11-09T09:44:32.531Z,82.49
2022-11-09T09:47:11.955Z,82.73
2022-11-09T09:49:46.238Z,82.69
2022-11-09T09:52:25.973Z,83.19
2022-11-09T09:55:08.311Z,83.26
2022-11-09T09:57:41.511Z,83.96
2022-11-09T10:00:15.924Z,83.88
2022-11-09T10:02:43.271Z,84.23
2022-11-09T10:05:15.467Z,84.00
2022-11-09T10:08:17.694Z,84.05
2022-11-09T10:10:59.714Z,84.40
2022-11-09T10:13:50.931Z,84.42
2022-11-09T10:16:34.727Z,84.65
2022-11-09T10:19:51.146Z,84.24
2022-11-09T10:22:26.550Z,83.87
2022-11-09T10:25:27.369Z,84.02
2022-11-09T10:27:57.573Z,83.75
2022-11-09T10:30:25.949Z,84.23
2022-11-09T10:32:56.367Z,83.85
2022-11-09T10:35:41.231Z,83.80
2022-11-09T10:38:15.770Z,84.39
2022-11-09T10:41:00.658Z,83.92
2022-11-09T10:43:27.175Z,83.78
2022-11-09T10:46:06.288Z,84.58
2022-11-09T10:48:35.805Z,84.64
2022-11-09T10:51:03.053Z,85.12
2022-11-09T10:53:31.656Z,84.59
2022-11-09T10:56:04.190Z,85.21
2022-11-09T10:58:38.045Z,83.00
2022-11-09T11:01:13.678Z,82.12
2022-11-09T11:03:42.016Z,84.30
2022-11-09T11:06:23.565Z,84.04
2022-11-09T11:09:12.779Z,84.02
2022-11-09T11:11:40.097Z,83.52
2022-11-09T11:14:31.999Z,92.50
2022-11-09T11:16:59.069Z,86.91
2022-11-09T11:19:37.092Z,85.93
2022-11-09T11:22:12.565Z,84.28
2022-11-09T11:24:43.035Z,84.25
2022-11-09T11:27:18.072Z,85.39
2022-11-09T11:29:55.085Z,85.35
2022-11-09T11:32:23.705Z,86.61
2022-11-09T11:35:05.484Z,85.70
2022-11-09T11:38:07.258Z,85.53
2022-11-09T11:40:43.965Z,85.83
2022-11-09T11:43:27.704Z,87.87
2022-11-09T11:46:09.441Z,87.54
2022-11-09T11:48:50.945Z,87.04
2022-11-09T11:51:30.271Z,87.00
2022-11-09T11:54:12.432Z,87.89
2022-11-09T11:56:59.463Z,86.31
2022-11-09T11:59:44.464Z,86.45
2022-11-09T12:02:23.216Z,87.70
2022-11-09T12:05:01.711Z,87.73
2022-11-09T12:07:34.256Z,88.12
2022-11-09T12:10:45.498Z,86.56
2022-11-09T12:14:09.165Z,87.36
2022-11-09T12:17:13.939Z,88.90
2022-11-09T12:20:03.343Z,88.15
2022-11-09T12:22:29.990Z,88.00
2022-11-09T12:25:22.610Z,86.83
2022-11-09T12:28:01.464Z,88.17
2022-11-09T12:31:06.571Z,90.45
2022-11-09T12:33:45.500Z,88.59
2022-11-09T12:36:31.376Z,87.35
2022-11-09T12:39:10.768Z,88.31
2022-11-09T12:41:38.628Z,86.95
2022-11-09T12:44:25.425Z,85.74
2022-11-09T12:47:06.983Z,86.75
2022-11-09T12:49:38.335Z,86.58
2022-11-09T12:52:11.780Z,86.89
2022-11-09T12:54:42.709Z,88.50
2022-11-09T12:57:22.828Z,86.76
2022-11-09T12:59:52.147Z,89.36
2022-11-09T13:02:34.939Z,88.48
2022-11-09T13:05:08.468Z,87.38
2022-11-09T13:07:50.021Z,85.68
2022-11-09T13:10:34.968Z,87.48
2022-11-09T13:13:04.363Z,87.90
2022-11-09T13:15:34.174Z,90.10
2022-11-09T13:18:25.957Z,87.61
2022-11-09T13:20:56.031Z,88.65
2022-11-09T13:26:47.852Z,86.32
2022-11-09T13:29:25.675Z,87.79
2022-11-09T13:32:04.638Z,84.48
2022-11-09T13:34:40.119Z,85.37
2022-11-09T13:37:40.705Z,86.26
2022-11-09T13:40:48.542Z,88.02
2022-11-09T13:43:17.884Z,87.38
2022-11-09T13:45:56.552Z,86.75
2022-11-09T13:48:41.347Z,85.44
2022-11-09T13:51:21.514Z,86.54
2022-11-09T13:53:56.008Z,85.34
2022-11-09T13:56:37.905Z,85.27
2022-11-09T13:59:13.421Z,85.82
2022-11-09T14:01:48.990Z,85.74
2022-11-09T14:04:24.560Z,86.12
2022-11-09T14:07:03.959Z,85.51
2022-11-09T14:10:09.415Z,85.07
2022-11-09T14:12:46.794Z,87.26
2022-11-09T14:15:29.020Z,86.16
2022-11-09T14:18:10.810Z,86.07
2022-11-09T14:21:00.578Z,85.76
2022-11-09T14:23:32.095Z,85.33
2022-11-09T14:25:58.682Z,85.30
2022-11-09T14:28:31.064Z,85.58
2022-11-09T14:30:57.816Z,85.79
2022-11-09T14:33:35.562Z,86.75
2022-11-09T14:36:04.919Z,86.36
2022-11-09T14:38:36.580Z,86.38
2022-11-09T14:41:03.881Z,86.38
2022-11-09T14:43:43.144Z,86.89
2022-11-09T14:46:30.775Z,85.96
2022-11-09T14:49:00.636Z,85.15
2022-11-09T14:51:35.537Z,85.67
2022-11-09T14:54:02.751Z,86.47
2022-11-09T14:56:30.652Z,87.51
2022-11-09T14:58:58.074Z,84.88
2022-11-09T15:01:27.071Z,84.85
2022-11-09T15:04:20.260Z,85.46
2022-11-09T15:06:56.164Z,86.82
2022-11-09T15:09:44.724Z,87.08
2022-11-09T15:12:16.112Z,87.53
2022-11-09T15:14:43.080Z,86.73
2022-11-09T15:17:15.129Z,86.78
2022-11-09T15:19:57.162Z,87.52
2022-11-09T15:22:52.997Z,85.93
2022-11-09T15:25:19.516Z,85.89
2022-11-09T15:27:58.068Z,86.14
2022-11-09T15:30:33.451Z,86.33
2022-11-09T15:33:00.843Z,86.57
2022-11-09T15:35:28.130Z,86.15
2022-11-09T15:37:55.730Z,86.85
2022-11-09T15:40:24.793Z,87.33
2022-11-09T15:42:51.532Z,88.43
2022-11-09T15:45:21.142Z,90.01
2022-11-09T15:47:54.456Z,90.67
2022-11-09T15:50:24.968Z,90.54
2022-11-09T15:52:51.686Z,90.87
2022-11-09T15:55:24.413Z,91.60
2022-11-09T15:57:52.528Z,91.59
2022-11-09T16:00:21.449Z,91.26
2022-11-09T16:02:48.591Z,91.61
2022-11-09T16:05:15.883Z,92.99
2022-11-09T16:07:49.899Z,93.56
2022-11-09T16:10:20.228Z,92.79
2022-11-09T16:12:47.497Z,93.54
2022-11-09T16:15:14.322Z,93.48
2022-11-09T16:17:41.035Z,93.07
2022-11-09T16:20:08.002Z,93.95
2022-11-09T16:22:34.809Z,94.87
2022-11-09T16:25:01.441Z,93.90
2022-11-09T16:27:49.134Z,94.15
2022-11-09T16:30:15.630Z,93.97
2022-11-09T16:32:42.213Z,94.09
2022-11-09T16:35:26.130Z,95.30
2022-11-09T16:37:55.275Z,94.72
2022-11-09T16:40:23.118Z,94.69
2022-11-09T16:42:51.966Z,94.50
2022-11-09T16:45:20.389Z,94.13
2022-11-09T16:47:53.979Z,94.28
2022-11-09T16:50:20.555Z,95.01
2022-11-09T16:52:47.145Z,94.92
2022-11-09T16:55:13.683Z,94.99
2022-11-09T16:57:40.629Z,94.12
2022-11-09T17:00:08.483Z,94.13
2022-11-09T17:02:35.150Z,94.24
2022-11-09T17:05:01.775Z,94.08
2022-11-09T17:07:28.691Z,94.68
2022-11-09T17:09:55.189Z,94.18
2022-11-09T17:12:21.950Z,94.91
2022-11-09T17:14:48.598Z,94.87
2022-11-09T17:17:21.299Z,95.48
2022-11-09T17:19:49.698Z,95.31
2022-11-09T17:22:16.899Z,94.70
2022-11-09T17:24:43.556Z,95.05
2022-11-09T17:27:11.608Z,94.98
2022-11-09T17:29:38.861Z,94.76
2022-11-09T17:32:06.982Z,94.87
2022-11-09T17:34:34.146Z,94.43
2022-11-09T17:37:04.753Z,94.80
2022-11-09T17:39:32.411Z,94.69
2022-11-09T17:41:58.968Z,95.48
2022-11-09T17:44:25.503Z,95.49
2022-11-09T17:46:52.213Z,95.80
2022-11-09T17:49:18.799Z,94.92
2022-11-09T17:51:45.307Z,95.19
2022-11-09T17:54:12.004Z,96.00
2022-11-09T17:56:38.588Z,96.44
2022-11-09T17:59:05.611Z,95.37
2022-11-09T18:01:37.883Z,95.41
2022-11-09T18:04:07.441Z,96.36
2022-11-09T18:06:34.187Z,95.47
2022-11-09T18:09:39.154Z,95.18
2022-11-09T18:11:47.939Z,95.56
2022-11-09T18:14:15.971Z,95.98
2022-11-09T18:16:42.622Z,95.48
2022-11-09T18:19:09.158Z,94.93
2022-11-09T18:21:35.696Z,95.59
2022-11-09T18:24:02.430Z,95.80
2022-11-09T18:26:29.193Z,95.09
2022-11-09T18:28:56.883Z,95.17
2022-11-09T18:31:23.701Z,95.06
2022-11-09T18:33:50.938Z,95.61
2022-11-09T18:36:19.772Z,95.42
2022-11-09T18:38:47.032Z,95.18
2022-11-09T18:41:17.716Z,95.32
2022-11-09T18:43:45.122Z,95.42
2022-11-09T18:46:14.108Z,95.20
2022-11-09T18:48:40.971Z,96.36
2022-11-09T18:51:08.997Z,96.21
2022-11-09T18:53:40.870Z,95.56
2022-11-09T18:56:23.457Z,95.95
2022-11-09T18:58:52.958Z,96.32
2022-11-09T19:01:20.317Z,97.55
2022-11-09T19:03:47.006Z,96.98
2022-11-09T19:06:16.761Z,96.17
2022-11-09T19:09:02.366Z,96.41
2022-11-09T19:11:30.120Z,96.00
2022-11-09T19:13:56.654Z,96.72
2022-11-09T19:16:24.855Z,96.79
2022-11-09T19:18:51.709Z,96.85
2022-11-09T19:21:21.283Z,96.25
2022-11-09T19:23:47.868Z,96.70
2022-11-09T19:26:14.450Z,96.66
2022-11-09T19:28:41.032Z,96.58
2022-11-09T19:31:11.948Z,97.22
2022-11-09T19:33:38.481Z,97.66
2022-11-09T19:36:29.228Z,98.20
2022-11-09T19:38:52.247Z,100.00
2022-11-09T19:41:18.855Z,100.00
2022-11-09T19:43:49.369Z,100.00
2022-11-09T19:46:16.506Z,100.00
2022-11-09T19:48:47.235Z,100.00
2022-11-09T19:51:15.407Z,100.00
2022-11-09T19:53:42.744Z,100.00
2022-11-09T19:56:09.758Z,100.00
2022-11-09T19:58:36.327Z,100.00
2022-11-09T20:01:08.301Z,100.00
2022-11-09T20:03:35.469Z,100.00
2022-11-09T20:06:04.192Z,100.00
2022-11-09T20:08:36.578Z,100.00
2022-11-09T20:11:08.112Z,100.00
2022-11-09T20:13:36.860Z,100.00
2022-11-09T20:16:12.081Z,100.00
2022-11-09T20:18:39.547Z,100.00
2022-11-09T20:21:09.100Z,100.00
2022-11-09T20:23:35.658Z,100.00
2022-11-09T20:26:06.771Z,100.00
2022-11-09T20:28:33.645Z,100.00
2022-11-09T20:31:00.201Z,100.00
2022-11-09T20:33:26.780Z,100.00
2022-11-09T20:35:54.427Z,100.00
2022-11-09T20:38:22.100Z,100.00
2022-11-09T20:40:56.768Z,100.00
2022-11-09T20:43:24.637Z,100.00
2022-11-09T20:45:51.590Z,100.00
2022-11-09T20:48:38.767Z,100.00
2022-11-09T20:51:07.043Z,100.00
2022-11-09T20:53:34.083Z,100.00
2022-11-09T20:56:01.081Z,100.00
2022-11-09T20:58:27.757Z,100.00
2022-11-09T21:01:01.872Z,100.00
2022-11-09T21:03:28.499Z,100.00
2022-11-09T21:05:59.666Z,100.00
2022-11-09T21:08:27.160Z,100.00
2022-11-09T21:10:54.128Z,100.00
2022-11-09T21:13:21.415Z,100.00
2022-11-09T21:15:48.434Z,100.00
2022-11-09T21:18:15.163Z,100.00
2022-11-09T21:20:42.017Z,100.00
2022-11-09T21:23:13.188Z,100.00
2022-11-09T21:26:02.460Z,100.00
2022-11-09T21:28:47.843Z,100.00
2022-11-09T21:31:14.536Z,100.00
2022-11-09T21:33:41.482Z,100.00
2022-11-09T21:36:14.264Z,100.00
2022-11-09T21:38:40.958Z,100.00
2022-11-09T21:41:27.770Z,100.00
2022-11-09T21:43:55.363Z,100.00
2022-11-09T21:46:23.460Z,100.00
2022-11-09T21:48:50.754Z,100.00
2022-11-09T21:51:17.339Z,100.00
2022-11-09T21:53:43.876Z,100.00
2022-11-09T21:56:10.430Z,100.00
2022-11-09T21:58:36.955Z,100.00
2022-11-09T22:01:08.570Z,100.00
2022-11-09T22:03:35.459Z,100.00
2022-11-09T22:06:02.156Z,100.00
2022-11-09T22:08:28.773Z,100.00
2022-11-09T22:11:06.072Z,100.00
2022-11-09T22:13:51.739Z,100.00
2022-11-09T22:16:19.980Z,100.00
2022-11-09T22:19:05.692Z,100.00
2022-11-09T22:21:32.962Z,100.00
2022-11-09T22:24:00.812Z,100.00
2022-11-09T22:26:29.022Z,100.00
2022-11-09T22:28:57.370Z,100.00
2022-11-09T22:31:24.448Z,100.00
2022-11-09T22:33:51.759Z,100.00
2022-11-09T22:36:19.073Z,100.00
2022-11-09T22:38:46.899Z,100.00
2022-11-09T22:41:14.911Z,100.00
2022-11-09T22:43:43.722Z,100.00
2022-11-09T22:46:15.478Z,100.00
2022-11-09T22:48:43.554Z,100.00
2022-11-09T22:51:12.645Z,100.00
2022-11-09T22:53:39.616Z,100.00
2022-11-09T22:56:06.441Z,100.00
2022-11-09T22:58:32.991Z,100.00
2022-11-09T23:01:07.142Z,100.00
2022-11-09T23:03:34.684Z,100.00
2022-11-09T23:06:03.461Z,100.00
2022-11-09T23:08:34.105Z,100.00
2022-11-09T23:11:07.887Z,100.00
2022-11-09T23:13:35.056Z,100.00
2022-11-09T23:16:05.072Z,100.00
2022-11-09T23:18:51.012Z,100.00
2022-11-09T23:21:18.388Z,100.00
2022-11-09T23:23:45.152Z,100.00
2022-11-09T23:26:12.083Z,100.00
2022-11-09T23:28:38.648Z,100.00
2022-11-09T23:31:09.304Z,100.00
2022-11-09T23:33:36.097Z,100.00
2022-11-09T23:36:04.300Z,100.00
2022-11-09T23:38:35.742Z,100.00
2022-11-09T23:41:06.428Z,100.00
2022-11-09T23:43:33.312Z,100.00
2022-11-09T23:46:08.329Z,100.00
2022-11-09T23:48:35.360Z,100.00
2022-11-09T23:51:03.303Z,100.00
2022-11-09T23:53:31.596Z,100.00
2022-11-09T23:56:03.340Z,100.00
2022-11-09T23:58:30.343Z,100.00
